Belden, North Dakota
Current Conditions -  °F | °C
As of 7:15 AM on Friday 28 Nov 2014 (Local Time) from K08D Reporting Station
Overcast Overcast  
Wind Chill: -10°   Ceiling: 800
Heat Index:   Visibility: 10mi
Dew Point:   Wind: 14mph
Humidity: 100%   Direction: 90°E
Pressure: 29.73"   Gusts: 17mph
Location:  48.3212°N, 102.393°W
Report Text: K08D 281315Z AUTO 09012G15KT 10SM OVC008 M14/M14 A2973 RMK AO2
Loading
Personal Weather Stations






























Interactive Weather Map New forecast layout! Learn more

10-Day Weather Forecast

Advertisements
Track Severe Weather on mobile